Time;durP1;ratioP1;P1;durP2;ratioP2;P2;SDS_P1;SDS_P2;PMS_P1;PMS_P2;Temp;Humidity;BMP_temperature;BMP_pressure;BME280_temperature;BME280_humidity;BME280_pressure;Samples;Min_cycle;Max_cycle;Signal;HPM_P1;HPM_P2
2021/07/26 00:01:03;;;;;;;22.83;20.53;;;21.50;99.90;;;;;;4918791;29;20462;-75
2021/07/26 00:03:30;;;;;;;21.97;19.67;;;21.50;99.90;;;;;;4919414;29;20564;-74
2021/07/26 00:05:58;;;;;;;22.00;19.70;;;21.40;99.90;;;;;;4919195;29;20776;-74
2021/07/26 00:08:26;;;;;;;21.77;19.40;;;21.40;99.90;;;;;;4919010;29;20465;-73
2021/07/26 00:11:01;;;;;;;23.57;21.03;;;21.40;99.90;;;;;;4919115;29;20481;-74
2021/07/26 00:13:27;;;;;;;22.10;19.80;;;21.40;99.90;;;;;;4918852;29;20493;-74
2021/07/26 00:15:54;;;;;;;21.00;18.93;;;21.40;99.90;;;;;;4918965;29;20472;-74
2021/07/26 00:18:21;;;;;;;22.90;20.60;;;21.40;99.90;;;;;;4918760;29;20476;-74
2021/07/26 00:20:48;;;;;;;22.53;20.27;;;21.40;99.90;;;;;;4918799;29;20465;-74
2021/07/26 00:23:15;;;;;;;22.63;20.33;;;21.40;99.90;;;;;;4918938;29;20591;-73
2021/07/26 00:25:43;;;;;;;22.30;20.03;;;21.40;99.90;;;;;;4918901;29;20469;-74
2021/07/26 00:28:10;;;;;;;23.67;21.30;;;21.40;99.90;;;;;;4918978;29;20536;-74
2021/07/26 00:30:37;;;;;;;22.70;20.57;;;21.40;99.90;;;;;;4918753;29;20493;-73
2021/07/26 00:33:56;;;;;;;22.80;20.53;;;21.40;99.90;;;;;;4919168;29;20480;-74
2021/07/26 00:36:23;;;;;;;23.23;20.93;;;21.50;99.90;;;;;;4918682;29;20923;-74
2021/07/26 00:38:50;;;;;;;23.60;21.20;;;21.50;99.90;;;;;;4918923;29;20465;-74
2021/07/26 00:41:18;;;;;;;22.73;20.40;;;21.50;99.90;;;;;;4918519;29;20465;-74
2021/07/26 00:43:44;;;;;;;26.47;21.50;;;21.50;99.90;;;;;;4918774;29;20461;-75
2021/07/26 00:46:11;;;;;;;23.70;21.40;;;21.50;99.90;;;;;;4918590;29;20930;-74
2021/07/26 00:48:38;;;;;;;24.47;21.93;;;21.50;99.90;;;;;;4922966;29;20461;-74
2021/07/26 00:51:05;;;;;;;24.27;21.77;;;21.50;99.90;;;;;;4922544;29;20477;-74
2021/07/26 00:53:32;;;;;;;23.80;21.50;;;21.50;99.90;;;;;;4922523;29;20524;-74
2021/07/26 00:55:59;;;;;;;24.77;22.10;;;21.50;99.90;;;;;;4922811;29;20476;-74
2021/07/26 00:58:27;;;;;;;22.63;20.50;;;21.50;99.90;;;;;;4922528;29;20476;-74
2021/07/26 01:00:55;;;;;;;24.17;21.67;;;21.40;99.90;;;;;;4922681;29;20472;-75
2021/07/26 01:03:25;;;;;;;24.23;21.77;;;21.50;99.90;;;;;;4922503;29;20461;-74
2021/07/26 01:05:52;;;;;;;22.97;20.57;;;21.40;99.90;;;;;;4923440;29;20469;-74
2021/07/26 01:08:20;;;;;;;22.80;20.50;;;21.40;99.90;;;;;;4922197;29;20500;-73
2021/07/26 01:10:47;;;;;;;24.87;21.60;;;21.40;99.90;;;;;;4921923;29;20485;-74
2021/07/26 01:13:14;;;;;;;23.80;21.40;;;21.40;99.90;;;;;;4922012;29;20493;-73
2021/07/26 01:15:42;;;;;;;22.67;20.37;;;21.40;99.90;;;;;;4922514;29;20494;-74
2021/07/26 01:18:23;;;;;;;22.13;19.93;;;21.40;99.90;;;;;;4921688;29;20950;-73
2021/07/26 01:20:53;;;;;;;21.73;19.63;;;21.40;99.90;;;;;;4922101;29;20442;-73
2021/07/26 01:23:20;;;;;;;22.00;19.77;;;21.40;99.90;;;;;;4921855;29;20468;-73
2021/07/26 01:25:46;;;;;;;22.20;19.53;;;21.40;99.90;;;;;;4921860;29;20461;-74
2021/07/26 01:28:15;;;;;;;21.20;19.30;;;21.40;99.90;;;;;;4922129;29;20476;-73
2021/07/26 01:30:42;;;;;;;22.13;19.63;;;21.30;99.90;;;;;;4922345;29;20477;-74
2021/07/26 01:33:09;;;;;;;22.80;20.50;;;21.30;99.90;;;;;;4921901;29;20472;-74
2021/07/26 01:35:36;;;;;;;23.23;20.07;;;21.30;99.90;;;;;;4921728;29;20492;-75
2021/07/26 01:38:05;;;;;;;20.40;18.17;;;21.20;99.90;;;;;;4921699;29;20515;-74
2021/07/26 01:40:34;;;;;;;20.23;18.23;;;21.20;99.90;;;;;;4921707;29;20797;-74
2021/07/26 01:43:02;;;;;;;22.80;20.50;;;21.20;99.90;;;;;;4921680;29;20559;-74
2021/07/26 01:45:30;;;;;;;21.60;19.50;;;21.20;99.90;;;;;;4921304;29;20465;-74
2021/07/26 01:48:02;;;;;;;21.03;18.87;;;21.20;99.90;;;;;;4921392;29;20469;-74
2021/07/26 01:50:35;;;;;;;20.93;18.80;;;21.20;99.90;;;;;;4921407;29;20556;-74
2021/07/26 01:53:02;;;;;;;21.80;19.53;;;21.20;99.90;;;;;;4921314;29;20456;-74
2021/07/26 01:55:30;;;;;;;20.77;18.80;;;21.20;99.90;;;;;;4921502;29;20480;-74
2021/07/26 01:57:59;;;;;;;20.80;18.73;;;21.10;99.90;;;;;;4921419;29;20465;-74
2021/07/26 02:00:26;;;;;;;23.07;19.30;;;21.10;99.90;;;;;;4921620;29;20921;-74
2021/07/26 02:02:53;;;;;;;21.13;18.93;;;21.10;99.90;;;;;;4921438;29;20472;-75
2021/07/26 02:05:20;;;;;;;22.13;19.87;;;21.10;99.90;;;;;;4921324;29;20843;-74
2021/07/26 02:07:46;;;;;;;21.83;19.63;;;21.10;99.90;;;;;;4921190;29;20468;-74
2021/07/26 02:10:13;;;;;;;23.77;21.37;;;21.10;99.90;;;;;;4920589;29;20915;-74
2021/07/26 02:12:41;;;;;;;20.83;18.83;;;21.10;99.90;;;;;;4920797;29;20499;-74
2021/07/26 02:15:09;;;;;;;22.93;20.67;;;21.10;99.90;;;;;;4921127;29;20805;-74
2021/07/26 02:17:36;;;;;;;21.37;19.27;;;21.10;99.90;;;;;;4921409;29;20465;-74
2021/07/26 02:20:04;;;;;;;21.87;19.43;;;21.10;99.90;;;;;;4921322;29;20457;-74
2021/07/26 02:22:30;;;;;;;23.17;20.77;;;21.10;99.90;;;;;;4921430;29;20489;-74
2021/07/26 02:24:57;;;;;;;22.07;19.93;;;21.10;99.90;;;;;;4922068;29;20473;-74
2021/07/26 02:27:24;;;;;;;21.60;18.90;;;21.10;99.90;;;;;;4926007;29;20476;-73
2021/07/26 02:29:52;;;;;;;21.63;19.30;;;21.10;99.90;;;;;;4926864;29;20461;-74
2021/07/26 02:32:19;;;;;;;20.33;18.33;;;21.10;99.90;;;;;;4922276;29;20825;-74
2021/07/26 02:34:46;;;;;;;22.07;19.90;;;21.10;99.90;;;;;;4921003;29;20461;-74
2021/07/26 02:37:12;;;;;;;21.50;19.33;;;21.10;99.90;;;;;;4920608;29;20800;-74
2021/07/26 02:39:39;;;;;;;21.83;19.70;;;21.10;99.90;;;;;;4920541;29;20477;-74
2021/07/26 02:42:09;;;;;;;22.33;20.20;;;21.10;99.90;;;;;;4920692;29;20473;-74
2021/07/26 02:44:36;;;;;;;25.33;22.83;;;21.10;99.90;;;;;;4920460;29;20816;-74
2021/07/26 02:47:04;;;;;;;28.07;21.23;;;21.10;99.90;;;;;;4920464;29;20461;-74
2021/07/26 02:49:31;;;;;;;23.90;21.47;;;21.00;99.90;;;;;;4920620;29;20807;-73
2021/07/26 02:51:58;;;;;;;25.70;20.67;;;21.00;99.90;;;;;;4920229;29;20481;-74
2021/07/26 02:54:24;;;;;;;26.80;22.03;;;21.00;99.90;;;;;;4920539;29;20651;-74
2021/07/26 02:56:51;;;;;;;24.17;21.87;;;21.00;99.90;;;;;;4920781;29;20468;-73
2021/07/26 02:59:18;;;;;;;24.63;21.70;;;21.00;99.90;;;;;;4920892;29;20480;-73
2021/07/26 03:01:45;;;;;;;22.97;20.53;;;21.00;99.90;;;;;;4920699;29;20462;-74
2021/07/26 03:04:13;;;;;;;23.20;20.90;;;21.00;99.90;;;;;;4920330;29;20475;-74
2021/07/26 03:06:40;;;;;;;25.30;22.77;;;21.00;99.90;;;;;;4920302;29;20778;-74
2021/07/26 03:09:07;;;;;;;27.10;23.23;;;21.00;99.90;;;;;;4919182;29;20462;-74
2021/07/26 03:11:34;;;;;;;23.13;20.83;;;21.00;99.90;;;;;;4919638;29;20508;-74
2021/07/26 03:14:01;;;;;;;24.97;22.30;;;21.00;99.90;;;;;;4920033;29;20450;-74
2021/07/26 03:16:28;;;;;;;24.97;22.03;;;21.00;99.90;;;;;;4920184;29;20790;-73
2021/07/26 03:18:54;;;;;;;23.77;21.30;;;21.00;99.90;;;;;;4920290;29;20471;-74
2021/07/26 03:21:22;;;;;;;22.93;20.83;;;21.00;99.90;;;;;;4920553;29;20461;-74
2021/07/26 03:23:51;;;;;;;24.37;22.07;;;21.00;99.90;;;;;;4920301;29;20477;-73
2021/07/26 03:26:18;;;;;;;25.10;22.40;;;21.00;99.90;;;;;;4920904;29;20476;-73
2021/07/26 03:28:45;;;;;;;23.40;21.20;;;21.00;99.90;;;;;;4920106;29;20476;-74
2021/07/26 03:31:12;;;;;;;24.87;22.47;;;21.00;99.90;;;;;;4919497;29;20584;-73
2021/07/26 03:33:39;;;;;;;23.87;21.50;;;21.00;99.90;;;;;;4919888;29;20845;-74
2021/07/26 03:36:06;;;;;;;22.90;20.63;;;21.10;99.90;;;;;;4919537;29;20481;-74
2021/07/26 03:38:34;;;;;;;24.00;21.77;;;21.10;99.90;;;;;;4919523;29;20488;-74
2021/07/26 03:41:00;;;;;;;23.10;20.80;;;21.10;99.90;;;;;;4919474;29;20469;-74
2021/07/26 03:43:29;;;;;;;25.53;22.63;;;21.10;99.90;;;;;;4919440;29;20835;-74
2021/07/26 03:45:56;;;;;;;24.30;21.60;;;21.00;99.90;;;;;;4919479;29;20476;-74
2021/07/26 03:48:23;;;;;;;25.00;22.50;;;21.00;99.90;;;;;;4919563;29;20461;-74
2021/07/26 03:50:50;;;;;;;27.10;22.90;;;21.00;99.90;;;;;;4919299;29;20458;-74
2021/07/26 03:53:17;;;;;;;23.90;21.53;;;21.10;99.90;;;;;;4919362;29;20472;-74
2021/07/26 03:55:45;;;;;;;24.77;22.37;;;21.10;99.90;;;;;;4919520;29;20457;-74
2021/07/26 03:58:12;;;;;;;24.30;21.97;;;21.10;99.90;;;;;;4919370;29;20457;-74
2021/07/26 04:00:39;;;;;;;25.40;22.93;;;21.10;99.90;;;;;;4919568;29;20532;-74
2021/07/26 04:03:11;;;;;;;27.97;25.20;;;21.10;99.90;;;;;;4919451;29;20472;-74
2021/07/26 04:05:40;;;;;;;32.30;29.13;;;21.10;99.90;;;;;;4919643;29;20457;-74
2021/07/26 04:08:12;;;;;;;37.67;32.37;;;21.10;99.90;;;;;;4919571;29;20466;-74
2021/07/26 04:10:41;;;;;;;37.37;31.90;;;21.10;99.90;;;;;;4919270;29;20453;-74
2021/07/26 04:13:09;;;;;;;37.70;33.60;;;21.10;99.90;;;;;;4918836;29;20505;-74
2021/07/26 04:15:36;;;;;;;38.60;33.37;;;21.20;99.90;;;;;;4919663;29;20465;-74
2021/07/26 04:18:03;;;;;;;37.13;33.23;;;21.20;99.90;;;;;;4919002;29;20504;-75
2021/07/26 04:20:30;;;;;;;36.40;32.00;;;21.20;99.90;;;;;;4918873;29;20465;-74
2021/07/26 04:23:00;;;;;;;39.87;33.40;;;21.20;99.90;;;;;;4919025;29;20497;-74
2021/07/26 04:25:27;;;;;;;42.30;33.80;;;21.20;99.90;;;;;;4919571;29;20783;-74
2021/07/26 04:27:53;;;;;;;39.03;32.50;;;21.20;99.90;;;;;;4919509;29;20869;-75
2021/07/26 04:30:21;;;;;;;40.10;33.97;;;21.20;99.90;;;;;;4918938;29;20461;-75
2021/07/26 04:32:49;;;;;;;37.90;31.63;;;21.20;99.90;;;;;;4918690;29;20481;-76
2021/07/26 04:35:17;;;;;;;35.27;29.80;;;21.20;99.90;;;;;;4918868;29;20927;-77
2021/07/26 04:37:44;;;;;;;32.97;28.90;;;21.30;99.90;;;;;;4918689;29;20938;-76
2021/07/26 04:40:12;;;;;;;29.80;26.80;;;21.40;99.90;;;;;;4919153;29;20476;-76
2021/07/26 04:42:41;;;;;;;27.67;24.33;;;21.40;99.90;;;;;;4918769;29;20462;-76
2021/07/26 04:45:10;;;;;;;29.80;26.70;;;21.50;99.90;;;;;;4918918;29;20466;-76
2021/07/26 04:47:38;;;;;;;32.93;27.33;;;21.60;99.90;;;;;;4918727;29;20472;-76
2021/07/26 04:50:06;;;;;;;29.10;25.97;;;21.60;99.90;;;;;;4918758;29;20461;-77
2021/07/26 04:52:33;;;;;;;28.33;25.30;;;21.60;99.90;;;;;;4918487;29;20485;-76
2021/07/26 04:55:00;;;;;;;31.07;27.90;;;21.70;99.90;;;;;;4918878;29;20891;-77
2021/07/26 04:57:30;;;;;;;29.10;26.10;;;21.70;99.90;;;;;;4918522;29;20802;-76
2021/07/26 04:59:56;;;;;;;28.90;26.00;;;21.70;99.90;;;;;;4918853;29;20465;-76
2021/07/26 05:02:23;;;;;;;28.97;25.97;;;21.70;99.90;;;;;;4918701;29;20469;-77
2021/07/26 05:04:51;;;;;;;26.57;23.87;;;21.70;99.90;;;;;;4918613;29;20923;-77
2021/07/26 05:07:18;;;;;;;28.60;25.67;;;21.70;99.90;;;;;;4918557;29;20465;-77
2021/07/26 05:09:44;;;;;;;27.93;25.10;;;21.70;99.90;;;;;;4919209;29;20465;-77
2021/07/26 05:12:13;;;;;;;28.93;26.00;;;21.70;99.90;;;;;;4918415;29;20493;-78
2021/07/26 05:14:40;;;;;;;27.43;24.67;;;21.80;99.90;;;;;;4918900;29;20465;-77
2021/07/26 05:17:07;;;;;;;27.07;24.27;;;21.80;99.90;;;;;;4918292;29;20477;-77
2021/07/26 05:19:34;;;;;;;26.50;23.70;;;21.80;99.90;;;;;;4918690;29;20472;-77
2021/07/26 05:22:02;;;;;;;25.80;23.30;;;21.90;99.90;;;;;;4918888;29;20473;-77
2021/07/26 05:24:28;;;;;;;26.67;23.90;;;21.90;99.90;;;;;;4918945;29;20476;-77
2021/07/26 05:26:59;;;;;;;27.50;24.93;;;22.00;99.90;;;;;;4919000;29;20461;-77
2021/07/26 05:29:26;;;;;;;25.40;22.63;;;22.00;99.90;;;;;;4918903;29;20930;-77
2021/07/26 05:31:53;;;;;;;26.80;24.23;;;22.10;99.90;;;;;;4918623;29;20489;-77
2021/07/26 05:34:20;;;;;;;24.70;22.10;;;22.20;99.90;;;;;;4921974;29;20465;-78
2021/07/26 05:36:47;;;;;;;25.07;22.57;;;22.40;99.90;;;;;;4922961;29;20542;-77
2021/07/26 05:39:15;;;;;;;26.03;23.37;;;22.50;99.90;;;;;;4922773;29;20472;-77
2021/07/26 05:41:42;;;;;;;25.37;22.83;;;22.60;99.90;;;;;;4921913;29;20469;-78
2021/07/26 05:44:08;;;;;;;24.77;22.13;;;22.70;99.90;;;;;;4922182;29;20465;-77
2021/07/26 05:46:37;;;;;;;23.40;21.27;;;22.80;99.90;;;;;;4922168;29;20476;-78
2021/07/26 05:49:04;;;;;;;23.50;21.13;;;22.90;99.90;;;;;;4922209;29;20520;-77
2021/07/26 05:51:31;;;;;;;23.90;21.70;;;23.00;99.90;;;;;;4921540;29;20549;-78
2021/07/26 05:53:57;;;;;;;23.60;21.30;;;23.20;99.90;;;;;;4921969;29;20476;-77
2021/07/26 05:56:26;;;;;;;24.90;22.20;;;23.30;99.90;;;;;;4921743;29;20930;-77
2021/07/26 05:58:54;;;;;;;24.67;22.27;;;23.40;99.90;;;;;;4921194;29;20472;-77
2021/07/26 06:01:46;;;;;;;24.13;21.87;;;23.40;99.90;;;;;;4921958;29;20918;-77
2021/07/26 06:04:13;;;;;;;23.73;21.33;;;23.50;99.90;;;;;;4921895;29;20753;-77
2021/07/26 06:06:42;;;;;;;24.07;21.63;;;23.50;99.90;;;;;;4921697;29;20470;-77
2021/07/26 06:09:09;;;;;;;22.23;20.00;;;23.50;99.90;;;;;;4922035;29;20500;-79
2021/07/26 06:11:38;;;;;;;24.37;22.07;;;23.50;99.90;;;;;;4921916;29;20557;-76
2021/07/26 06:14:05;;;;;;;22.67;20.47;;;23.60;99.90;;;;;;4922447;29;20540;-75
2021/07/26 06:16:32;;;;;;;23.67;21.37;;;23.50;99.90;;;;;;4922178;29;20465;-78
2021/07/26 06:19:00;;;;;;;22.30;20.37;;;23.60;99.90;;;;;;4922047;29;20461;-79
2021/07/26 06:21:26;;;;;;;22.90;20.57;;;23.60;99.90;;;;;;4921744;29;20476;-78
2021/07/26 06:23:53;;;;;;;23.03;20.70;;;23.60;99.90;;;;;;4922344;29;20764;-77
2021/07/26 06:26:20;;;;;;;22.37;20.03;;;23.70;99.90;;;;;;4923887;29;20544;-78
2021/07/26 06:28:49;;;;;;;24.53;22.27;;;23.80;99.90;;;;;;4922557;29;20480;-78
2021/07/26 06:31:16;;;;;;;23.77;21.37;;;23.80;99.90;;;;;;4921938;29;20528;-78
2021/07/26 06:33:43;;;;;;;21.40;19.40;;;23.90;99.90;;;;;;4922975;29;20492;-74
2021/07/26 06:36:09;;;;;;;20.37;18.43;;;23.90;99.90;;;;;;4922642;29;20469;-75
2021/07/26 06:38:37;;;;;;;23.27;20.80;;;23.90;99.90;;;;;;4920540;29;20457;-75
2021/07/26 06:41:03;;;;;;;22.27;20.13;;;24.00;99.90;;;;;;4921004;29;20462;-74
2021/07/26 06:43:30;;;;;;;22.73;20.33;;;24.00;99.90;;;;;;4919945;29;20458;-75
2021/07/26 06:45:58;;;;;;;24.20;21.80;;;24.00;99.90;;;;;;4920416;29;20524;-76
2021/07/26 06:48:25;;;;;;;23.40;20.07;;;24.10;99.90;;;;;;4921036;29;20469;-75
2021/07/26 06:50:52;;;;;;;22.87;20.43;;;24.00;99.90;;;;;;4921028;29;20465;-76
2021/07/26 06:53:19;;;;;;;22.70;20.47;;;24.00;99.90;;;;;;4920973;29;20819;-76
2021/07/26 06:55:46;;;;;;;20.93;18.60;;;24.00;99.90;;;;;;4920669;29;20489;-73
2021/07/26 06:58:13;;;;;;;20.93;18.70;;;24.00;99.90;;;;;;4921013;29;20787;-74
2021/07/26 07:00:39;;;;;;;21.73;19.60;;;24.00;99.90;;;;;;4920361;29;20462;-75
2021/07/26 07:03:07;;;;;;;20.57;18.63;;;24.10;99.90;;;;;;4920336;29;20922;-75
2021/07/26 07:05:34;;;;;;;22.40;20.00;;;24.20;99.90;;;;;;4920719;29;20890;-74
2021/07/26 07:08:02;;;;;;;21.67;19.53;;;24.20;99.90;;;;;;4920846;29;20796;-76
2021/07/26 07:10:30;;;;;;;20.90;18.70;;;24.20;99.90;;;;;;4920288;29;20461;-75
2021/07/26 07:12:57;;;;;;;22.27;20.17;;;24.20;99.90;;;;;;4920239;29;20501;-75
2021/07/26 07:15:24;;;;;;;20.43;18.53;;;24.20;99.90;;;;;;4920391;29;20801;-75
2021/07/26 07:17:51;;;;;;;20.13;18.13;;;24.30;99.90;;;;;;4920258;29;20792;-75
2021/07/26 07:20:19;;;;;;;20.60;17.30;;;24.40;99.90;;;;;;4920191;29;20479;-75
2021/07/26 07:22:46;;;;;;;19.73;17.67;;;24.60;99.90;;;;;;4920224;29;20512;-75
2021/07/26 07:25:13;;;;;;;19.23;17.20;;;24.80;99.90;;;;;;4921796;29;20469;-75
2021/07/26 07:27:40;;;;;;;17.23;15.50;;;25.00;99.90;;;;;;4921616;29;20771;-75
2021/07/26 07:30:07;;;;;;;17.97;15.03;;;25.30;99.90;;;;;;4921081;29;20461;-77
2021/07/26 07:32:36;;;;;;;17.03;15.33;;;25.40;99.90;;;;;;4919925;29;20489;-75
2021/07/26 07:35:03;;;;;;;19.77;15.17;;;25.50;99.90;;;;;;4920276;29;20914;-75
2021/07/26 07:37:31;;;;;;;17.17;15.67;;;25.50;99.90;;;;;;4919601;29;20790;-75
2021/07/26 07:39:59;;;;;;;14.77;13.27;;;25.40;99.90;;;;;;4919704;29;20466;-75
2021/07/26 07:42:26;;;;;;;15.73;12.50;;;25.40;99.90;;;;;;4920016;29;20842;-75
2021/07/26 07:44:54;;;;;;;15.60;14.20;;;25.40;99.90;;;;;;4920194;29;20488;-75
2021/07/26 07:47:21;;;;;;;15.33;13.73;;;25.50;99.90;;;;;;4920050;29;20472;-75
2021/07/26 07:49:47;;;;;;;15.17;13.87;;;25.60;99.90;;;;;;4920175;29;20481;-75
2021/07/26 07:52:14;;;;;;;14.87;13.37;;;25.70;99.90;;;;;;4919573;29;20544;-75
2021/07/26 07:54:42;;;;;;;15.70;14.20;;;25.70;99.90;;;;;;4919584;29;20466;-74
2021/07/26 07:57:09;;;;;;;16.07;14.37;;;25.70;99.90;;;;;;4919370;29;20471;-74
2021/07/26 07:59:35;;;;;;;15.00;13.60;;;25.70;99.90;;;;;;4920464;29;20461;-75
2021/07/26 08:02:06;;;;;;;14.47;13.20;;;25.80;99.90;;;;;;4919603;29;20465;-74
2021/07/26 08:04:35;;;;;;;15.97;14.47;;;25.90;99.90;;;;;;4919225;29;20442;-75
2021/07/26 08:07:02;;;;;;;16.63;13.83;;;26.00;99.90;;;;;;4919158;29;20525;-75
2021/07/26 08:09:29;;;;;;;15.27;12.87;;;26.00;99.90;;;;;;4919988;29;20480;-75
2021/07/26 08:11:57;;;;;;;15.00;13.30;;;26.00;99.90;;;;;;4919751;29;20486;-76
2021/07/26 08:14:23;;;;;;;14.43;13.07;;;26.00;99.90;;;;;;4919705;29;20485;-75
2021/07/26 08:16:50;;;;;;;15.13;13.63;;;26.10;99.90;;;;;;4919178;29;20469;-74
2021/07/26 08:19:17;;;;;;;13.00;11.67;;;26.30;99.90;;;;;;4919100;29;20472;-75
2021/07/26 08:21:44;;;;;;;12.67;11.57;;;26.40;99.90;;;;;;4918949;29;20465;-75
2021/07/26 08:24:11;;;;;;;13.10;11.80;;;26.60;99.90;;;;;;4918902;29;20938;-75
2021/07/26 08:26:37;;;;;;;13.20;12.00;;;26.80;99.90;;;;;;4919464;29;20516;-74
2021/07/26 08:29:05;;;;;;;12.90;11.57;;;26.80;99.90;;;;;;4919505;29;20465;-75
2021/07/26 08:31:32;;;;;;;13.03;11.63;;;26.90;99.90;;;;;;4918828;29;20469;-74
2021/07/26 08:33:59;;;;;;;13.73;12.30;;;26.90;99.90;;;;;;4919014;29;20783;-75
2021/07/26 08:36:25;;;;;;;13.37;12.10;;;26.90;99.90;;;;;;4919013;29;20461;-74
2021/07/26 08:38:54;;;;;;;14.57;13.30;;;26.90;99.90;;;;;;4920693;29;20542;-76
2021/07/26 08:41:21;;;;;;;15.23;13.63;;;26.80;99.90;;;;;;4923189;29;20476;-76
2021/07/26 08:43:47;;;;;;;18.20;13.80;;;26.80;99.90;;;;;;4920685;29;20524;-76
2021/07/26 08:46:18;;;;;;;15.23;11.40;;;26.90;99.90;;;;;;4919237;29;20461;-77
2021/07/26 08:48:45;;;;;;;14.50;13.10;;;27.00;99.90;;;;;;4918732;29;20477;-76
2021/07/26 08:51:15;;;;;;;15.70;12.40;;;27.10;99.90;;;;;;4919255;29;20501;-76
2021/07/26 08:53:43;;;;;;;13.07;11.77;;;27.10;99.90;;;;;;4918846;29;20813;-75
2021/07/26 08:56:10;;;;;;;15.03;12.50;;;27.10;99.90;;;;;;4918560;29;20941;-74
2021/07/26 08:58:38;;;;;;;14.17;12.30;;;27.10;99.90;;;;;;4918817;29;20473;-76
2021/07/26 09:01:06;;;;;;;13.53;12.13;;;27.10;99.90;;;;;;4918552;29;20465;-75
2021/07/26 09:03:34;;;;;;;13.60;10.83;;;27.20;99.90;;;;;;4918561;29;20473;-75
2021/07/26 09:06:01;;;;;;;12.53;11.23;;;27.30;99.90;;;;;;4918990;29;20472;-75
2021/07/26 09:08:32;;;;;;;12.83;11.60;;;27.40;99.90;;;;;;4920640;29;20480;-75
2021/07/26 09:11:02;;;;;;;11.47;10.30;;;27.60;99.90;;;;;;4922310;29;20445;-75
2021/07/26 09:13:36;;;;;;;11.80;10.60;;;27.60;99.90;;;;;;4922042;29;21021;-75
2021/07/26 09:16:16;;;;;;;11.37;10.23;;;27.70;99.90;;;;;;4922250;29;20461;-75
2021/07/26 09:18:45;;;;;;;12.50;11.20;;;27.70;99.90;;;;;;4922430;29;20835;-75
2021/07/26 09:21:12;;;;;;;13.30;12.00;;;27.80;99.90;;;;;;4922298;29;20466;-75
2021/07/26 09:24:03;;;;;;;12.73;11.53;;;27.80;99.90;;;;;;4922765;29;20461;-75
2021/07/26 09:26:30;;;;;;;13.33;11.87;;;27.70;99.90;;;;;;4922208;29;20477;-75
2021/07/26 09:29:00;;;;;;;13.23;11.93;;;27.70;99.90;;;;;;4922065;29;20543;-75
2021/07/26 09:31:29;;;;;;;12.23;11.07;;;27.80;99.90;;;;;;4921868;29;20819;-75
2021/07/26 09:34:19;;;;;;;13.57;12.27;;;27.80;99.90;;;;;;4922203;29;20512;-75
2021/07/26 09:36:45;;;;;;;13.00;11.80;;;27.80;99.90;;;;;;4921433;29;20476;-75
2021/07/26 09:39:24;;;;;;;12.60;11.50;;;27.90;99.90;;;;;;4922165;29;20953;-75
2021/07/26 09:41:55;;;;;;;13.50;12.30;;;28.10;99.90;;;;;;4921725;29;20945;-75
2021/07/26 09:44:23;;;;;;;14.10;12.80;;;28.30;99.90;;;;;;4922120;29;20442;-75
2021/07/26 09:46:50;;;;;;;14.53;13.10;;;28.30;99.90;;;;;;4922187;29;20461;-76
2021/07/26 09:49:20;;;;;;;14.23;12.80;;;28.10;99.90;;;;;;4922499;29;20465;-75
2021/07/26 09:52:06;;;;;;;15.03;13.53;;;28.00;99.90;;;;;;4922560;29;20497;-74
2021/07/26 09:54:44;;;;;;;11.33;10.23;;;28.00;99.90;;;;;;4922395;29;20794;-75
2021/07/26 09:57:19;;;;;;;11.50;10.37;;;27.90;99.90;;;;;;4924287;29;20532;-77
2021/07/26 09:59:46;;;;;;;12.00;10.90;;;27.70;99.90;;;;;;4923223;29;20508;-76
2021/07/26 10:02:18;;;;;;;11.27;10.23;;;27.60;99.90;;;;;;4924313;29;20465;-77
2021/07/26 10:04:49;;;;;;;12.60;11.30;;;27.60;99.90;;;;;;4922369;29;20472;-76
2021/07/26 10:07:18;;;;;;;14.13;11.50;;;27.60;99.90;;;;;;4922013;29;20883;-76
2021/07/26 10:09:46;;;;;;;10.53;9.63;;;27.70;99.90;;;;;;4921662;29;20557;-76
2021/07/26 10:12:16;;;;;;;10.33;9.33;;;27.80;99.90;;;;;;4923442;29;20481;-76
2021/07/26 10:14:46;;;;;;;11.87;9.40;;;27.80;99.90;;;;;;4922109;29;20485;-76
2021/07/26 10:17:16;;;;;;;9.87;8.87;;;27.80;99.90;;;;;;4923350;29;20560;-76
2021/07/26 10:19:42;;;;;;;10.37;9.37;;;27.80;99.90;;;;;;4924415;29;20560;-76
2021/07/26 10:22:15;;;;;;;8.73;7.40;;;27.80;99.90;;;;;;4924593;29;20465;-76
2021/07/26 10:24:47;;;;;;;7.83;7.20;;;27.80;99.90;;;;;;4922009;29;20446;-76
2021/07/26 10:27:19;;;;;;;6.77;6.23;;;27.80;99.90;;;;;;4921218;29;20481;-77
2021/07/26 10:29:55;;;;;;;6.43;5.83;;;27.80;99.90;;;;;;4920683;29;20457;-75
2021/07/26 10:32:46;;;;;;;8.43;6.90;;;27.80;99.90;;;;;;4921257;29;20871;-76
2021/07/26 10:35:35;;;;;;;6.93;6.17;;;27.90;99.90;;;;;;4918556;29;20496;-76
2021/07/26 10:38:03;;;;;;;8.63;7.17;;;28.10;99.90;;;;;;4920816;29;20445;-77
2021/07/26 10:40:37;;;;;;;7.73;6.80;;;28.10;99.90;;;;;;4920671;29;20462;-77
2021/07/26 10:43:06;;;;;;;9.40;8.40;;;28.10;99.90;;;;;;4921097;29;20468;-77
2021/07/26 10:45:56;;;;;;;8.37;7.53;;;28.20;99.90;;;;;;4920495;29;20477;-76
2021/07/26 10:48:38;;;;;;;9.17;8.27;;;28.10;99.90;;;;;;4920333;29;20879;-77
2021/07/26 10:51:37;;;;;;;9.20;8.37;;;28.20;99.90;;;;;;4921436;29;20460;-76
2021/07/26 10:54:08;;;;;;;9.17;8.40;;;28.20;99.90;;;;;;4920905;29;20969;-76
2021/07/26 10:57:05;;;;;;;8.70;8.00;;;28.20;99.90;;;;;;4921058;29;20465;-76
2021/07/26 10:59:47;;;;;;;9.27;8.30;;;28.20;99.90;;;;;;4921040;29;20457;-76
2021/07/26 11:02:33;;;;;;;8.87;8.00;;;28.30;99.90;;;;;;4919983;29;20891;-76
2021/07/26 11:04:59;;;;;;;9.50;8.60;;;28.50;99.90;;;;;;4920225;29;20513;-76
2021/07/26 11:07:30;;;;;;;8.83;8.07;;;28.60;99.90;;;;;;4919546;29;20461;-76
2021/07/26 11:10:01;;;;;;;7.97;7.33;;;28.80;99.90;;;;;;4920142;29;20446;-76
2021/07/26 11:12:54;;;;;;;9.43;8.07;;;28.90;99.90;;;;;;4919707;29;20810;-76
2021/07/26 11:15:22;;;;;;;10.57;7.70;;;28.90;99.90;;;;;;4919770;29;20981;-76
2021/07/26 11:18:16;;;;;;;9.10;8.20;;;28.90;99.90;;;;;;4919899;29;20859;-77
2021/07/26 11:21:21;;;;;;;8.67;7.87;;;29.00;99.90;;;;;;4886351;29;20457;-77
2021/07/26 11:23:50;;;;;;;9.37;8.47;;;29.20;99.90;;;;;;4920037;29;20489;-76
2021/07/26 11:26:21;;;;;;;9.13;8.33;;;29.40;99.90;;;;;;4919607;29;20472;-76
2021/07/26 11:28:48;;;;;;;8.07;7.40;;;29.80;99.90;;;;;;4919891;29;20442;-76
2021/07/26 11:31:27;;;;;;;9.33;8.37;;;30.50;99.90;;;;;;4919775;29;20504;-76
2021/07/26 11:34:04;;;;;;;6.60;5.93;;;31.50;99.90;;;;;;4919806;29;20489;-77
2021/07/26 11:36:33;;;;;;;5.83;5.43;;;32.20;99.90;;;;;;4919515;29;20449;-76
2021/07/26 11:39:02;;;;;;;6.30;5.70;;;33.10;99.90;;;;;;4919688;29;20476;-75
2021/07/26 11:41:31;;;;;;;9.73;6.60;;;33.70;99.90;;;;;;4919620;29;20457;-76
2021/07/26 11:43:58;;;;;;;6.70;5.70;;;34.40;99.90;;;;;;4919341;29;20461;-76
2021/07/26 11:46:27;;;;;;;6.97;6.37;;;34.90;99.90;;;;;;4919432;29;20473;-77
2021/07/26 11:48:55;;;;;;;6.77;6.17;;;35.10;99.90;;;;;;4919928;29;20501;-76
2021/07/26 11:51:34;;;;;;;6.30;5.70;;;35.10;99.90;;;;;;4920485;29;20476;-76
2021/07/26 11:54:04;;;;;;;6.50;6.00;;;35.30;99.90;;;;;;4919383;29;20474;-76
2021/07/26 11:56:32;;;;;;;5.97;5.47;;;35.40;95.40;;;;;;4919078;29;20461;-77
2021/07/26 11:59:16;;;;;;;6.33;5.70;;;34.90;93.20;;;;;;4919417;29;20461;-75
2021/07/26 12:01:49;;;;;;;6.37;5.87;;;34.00;93.50;;;;;;4919101;29;20465;-75
2021/07/26 12:04:16;;;;;;;5.90;5.40;;;33.40;95.00;;;;;;4919855;29;20453;-76
2021/07/26 12:06:54;;;;;;;5.93;5.37;;;33.50;96.80;;;;;;4918847;29;20465;-76
2021/07/26 12:09:21;;;;;;;7.43;5.50;;;33.60;95.10;;;;;;4919173;29;20450;-75
2021/07/26 12:11:49;;;;;;;8.77;5.40;;;33.10;94.70;;;;;;4918928;29;20516;-76
2021/07/26 12:14:28;;;;;;;6.57;6.07;;;32.60;95.60;;;;;;4919275;29;20500;-75
2021/07/26 12:16:59;;;;;;;8.13;7.33;;;32.10;97.90;;;;;;4920879;29;20996;-75
2021/07/26 12:19:26;;;;;;;9.23;8.03;;;30.70;99.90;;;;;;4920430;29;20899;-77
2021/07/26 12:21:53;;;;;;;8.10;7.30;;;29.60;99.90;;;;;;4922534;29;20461;-78
2021/07/26 12:24:45;;;;;;;8.63;7.63;;;28.50;99.90;;;;;;4925106;29;20465;-77
2021/07/26 12:27:26;;;;;;;8.87;7.77;;;27.70;99.90;;;;;;4926127;29;20501;-76
2021/07/26 12:29:54;;;;;;;7.93;7.23;;;27.20;99.90;;;;;;4927034;29;20449;-76
2021/07/26 12:32:21;;;;;;;8.77;7.87;;;27.00;99.90;;;;;;4929106;29;20493;-77
2021/07/26 12:35:21;;;;;;;7.93;6.93;;;26.90;99.90;;;;;;4926327;29;20965;-77
2021/07/26 12:38:08;;;;;;;9.57;7.73;;;26.90;99.90;;;;;;4924398;29;20465;-77
2021/07/26 12:40:38;;;;;;;8.27;7.57;;;26.90;99.90;;;;;;4934734;29;20473;-78
2021/07/26 12:43:11;;;;;;;7.97;7.30;;;26.90;99.90;;;;;;4937882;29;20457;-76